sensor_id;sensor_type;location;lat;lon;timestamp;P1;durP1;ratioP1;P2;durP2;ratioP2
583;SDS011;27024;54.068;12.116;2023-05-29T00:01:43;9.70;;;3.20;;
583;SDS011;27024;54.068;12.116;2023-05-29T00:04:10;7.47;;;2.90;;
583;SDS011;27024;54.068;12.116;2023-05-29T00:06:38;5.72;;;2.30;;
583;SDS011;27024;54.068;12.116;2023-05-29T00:09:07;7.40;;;2.53;;
583;SDS011;27024;54.068;12.116;2023-05-29T00:11:34;7.82;;;2.65;;
583;SDS011;27024;54.068;12.116;2023-05-29T00:14:01;7.72;;;2.70;;
583;SDS011;27024;54.068;12.116;2023-05-29T00:16:28;5.45;;;2.30;;
583;SDS011;27024;54.068;12.116;2023-05-29T00:18:56;6.30;;;2.38;;
583;SDS011;27024;54.068;12.116;2023-05-29T00:21:24;6.60;;;2.30;;
583;SDS011;27024;54.068;12.116;2023-05-29T00:23:51;6.63;;;2.35;;
583;SDS011;27024;54.068;12.116;2023-05-29T00:26:17;7.45;;;2.40;;
583;SDS011;27024;54.068;12.116;2023-05-29T00:28:44;9.63;;;3.05;;
583;SDS011;27024;54.068;12.116;2023-05-29T00:31:11;10.65;;;2.85;;
583;SDS011;27024;54.068;12.116;2023-05-29T00:33:39;10.43;;;2.85;;
583;SDS011;27024;54.068;12.116;2023-05-29T00:36:06;6.80;;;2.72;;
583;SDS011;27024;54.068;12.116;2023-05-29T00:38:34;9.75;;;2.63;;
583;SDS011;27024;54.068;12.116;2023-05-29T00:41:01;8.50;;;2.63;;
583;SDS011;27024;54.068;12.116;2023-05-29T00:43:29;10.25;;;2.58;;
583;SDS011;27024;54.068;12.116;2023-05-29T00:45:56;8.68;;;2.53;;
583;SDS011;27024;54.068;12.116;2023-05-29T00:48:23;7.00;;;2.40;;
583;SDS011;27024;54.068;12.116;2023-05-29T00:50:50;12.93;;;2.90;;
583;SDS011;27024;54.068;12.116;2023-05-29T00:53:17;8.40;;;2.55;;
583;SDS011;27024;54.068;12.116;2023-05-29T00:55:45;6.63;;;2.08;;
583;SDS011;27024;54.068;12.116;2023-05-29T00:58:12;10.82;;;2.30;;
583;SDS011;27024;54.068;12.116;2023-05-29T01:00:39;9.73;;;2.22;;
583;SDS011;27024;54.068;12.116;2023-05-29T01:03:06;9.70;;;2.25;;
583;SDS011;27024;54.068;12.116;2023-05-29T01:05:34;6.10;;;1.73;;
583;SDS011;27024;54.068;12.116;2023-05-29T01:08:02;8.35;;;2.55;;
583;SDS011;27024;54.068;12.116;2023-05-29T01:10:29;9.73;;;2.10;;
583;SDS011;27024;54.068;12.116;2023-05-29T01:13:11;8.50;;;1.90;;
583;SDS011;27024;54.068;12.116;2023-05-29T01:15:54;7.40;;;1.67;;
583;SDS011;27024;54.068;12.116;2023-05-29T01:18:39;8.88;;;1.83;;
583;SDS011;27024;54.068;12.116;2023-05-29T01:21:26;12.10;;;2.05;;
583;SDS011;27024;54.068;12.116;2023-05-29T01:27:00;9.10;;;1.85;;
583;SDS011;27024;54.068;12.116;2023-05-29T01:29:30;6.20;;;1.55;;
583;SDS011;27024;54.068;12.116;2023-05-29T01:32:00;9.70;;;1.48;;
583;SDS011;27024;54.068;12.116;2023-05-29T01:34:28;9.25;;;1.70;;
583;SDS011;27024;54.068;12.116;2023-05-29T01:36:55;8.52;;;1.58;;
583;SDS011;27024;54.068;12.116;2023-05-29T01:39:23;8.05;;;1.25;;
583;SDS011;27024;54.068;12.116;2023-05-29T01:41:51;7.65;;;1.27;;
583;SDS011;27024;54.068;12.116;2023-05-29T01:44:18;8.73;;;1.60;;
583;SDS011;27024;54.068;12.116;2023-05-29T01:46:47;7.60;;;1.83;;
583;SDS011;27024;54.068;12.116;2023-05-29T01:49:15;6.00;;;1.40;;
583;SDS011;27024;54.068;12.116;2023-05-29T01:51:43;7.82;;;1.23;;
583;SDS011;27024;54.068;12.116;2023-05-29T01:54:10;9.65;;;1.40;;
583;SDS011;27024;54.068;12.116;2023-05-29T01:56:37;6.05;;;1.17;;
583;SDS011;27024;54.068;12.116;2023-05-29T01:59:05;6.03;;;1.38;;
583;SDS011;27024;54.068;12.116;2023-05-29T02:01:32;6.60;;;1.10;;
583;SDS011;27024;54.068;12.116;2023-05-29T02:04:00;9.20;;;1.48;;
583;SDS011;27024;54.068;12.116;2023-05-29T02:06:27;8.10;;;1.35;;
583;SDS011;27024;54.068;12.116;2023-05-29T02:08:53;4.68;;;1.00;;
583;SDS011;27024;54.068;12.116;2023-05-29T02:11:20;11.63;;;1.58;;
583;SDS011;27024;54.068;12.116;2023-05-29T02:13:48;8.05;;;1.20;;
583;SDS011;27024;54.068;12.116;2023-05-29T02:16:15;7.72;;;1.08;;
583;SDS011;27024;54.068;12.116;2023-05-29T02:18:43;8.88;;;1.40;;
583;SDS011;27024;54.068;12.116;2023-05-29T02:21:10;8.85;;;1.42;;
583;SDS011;27024;54.068;12.116;2023-05-29T02:23:38;10.35;;;1.00;;
583;SDS011;27024;54.068;12.116;2023-05-29T02:26:05;9.68;;;1.38;;
583;SDS011;27024;54.068;12.116;2023-05-29T02:28:32;8.82;;;1.20;;
583;SDS011;27024;54.068;12.116;2023-05-29T02:30:59;7.40;;;1.27;;
583;SDS011;27024;54.068;12.116;2023-05-29T02:33:25;10.10;;;1.30;;
583;SDS011;27024;54.068;12.116;2023-05-29T02:35:53;8.38;;;1.20;;
583;SDS011;27024;54.068;12.116;2023-05-29T02:38:19;8.68;;;1.08;;
583;SDS011;27024;54.068;12.116;2023-05-29T02:40:46;10.43;;;1.25;;
583;SDS011;27024;54.068;12.116;2023-05-29T02:43:13;10.13;;;1.23;;
583;SDS011;27024;54.068;12.116;2023-05-29T02:45:40;7.80;;;1.05;;
583;SDS011;27024;54.068;12.116;2023-05-29T02:48:07;8.38;;;1.15;;
583;SDS011;27024;54.068;12.116;2023-05-29T02:50:34;6.25;;;0.80;;
583;SDS011;27024;54.068;12.116;2023-05-29T02:53:01;6.57;;;1.15;;
583;SDS011;27024;54.068;12.116;2023-05-29T02:55:28;10.10;;;1.42;;
583;SDS011;27024;54.068;12.116;2023-05-29T02:57:55;11.80;;;1.33;;
583;SDS011;27024;54.068;12.116;2023-05-29T03:00:22;8.68;;;1.40;;
583;SDS011;27024;54.068;12.116;2023-05-29T03:02:49;10.05;;;1.00;;
583;SDS011;27024;54.068;12.116;2023-05-29T03:05:16;11.90;;;1.58;;
583;SDS011;27024;54.068;12.116;2023-05-29T03:07:43;11.70;;;1.02;;
583;SDS011;27024;54.068;12.116;2023-05-29T03:10:11;10.73;;;1.23;;
583;SDS011;27024;54.068;12.116;2023-05-29T03:12:38;12.05;;;1.27;;
583;SDS011;27024;54.068;12.116;2023-05-29T03:15:06;12.93;;;1.85;;
583;SDS011;27024;54.068;12.116;2023-05-29T03:17:34;9.43;;;1.30;;
583;SDS011;27024;54.068;12.116;2023-05-29T03:20:02;10.05;;;1.02;;
583;SDS011;27024;54.068;12.116;2023-05-29T03:22:32;7.10;;;1.35;;
583;SDS011;27024;54.068;12.116;2023-05-29T03:24:59;11.48;;;1.42;;
583;SDS011;27024;54.068;12.116;2023-05-29T03:27:26;10.00;;;1.27;;
583;SDS011;27024;54.068;12.116;2023-05-29T03:29:53;8.68;;;1.27;;
583;SDS011;27024;54.068;12.116;2023-05-29T03:32:21;7.88;;;1.10;;
583;SDS011;27024;54.068;12.116;2023-05-29T03:34:47;10.02;;;1.20;;
583;SDS011;27024;54.068;12.116;2023-05-29T03:37:14;8.70;;;0.90;;
583;SDS011;27024;54.068;12.116;2023-05-29T03:39:41;8.07;;;1.10;;
583;SDS011;27024;54.068;12.116;2023-05-29T03:42:08;19.60;;;4.03;;
583;SDS011;27024;54.068;12.116;2023-05-29T03:44:35;10.05;;;1.88;;
583;SDS011;27024;54.068;12.116;2023-05-29T03:47:02;7.75;;;1.08;;
583;SDS011;27024;54.068;12.116;2023-05-29T03:49:28;9.13;;;1.40;;
583;SDS011;27024;54.068;12.116;2023-05-29T03:51:55;10.55;;;2.10;;
583;SDS011;27024;54.068;12.116;2023-05-29T03:54:22;7.03;;;1.23;;
583;SDS011;27024;54.068;12.116;2023-05-29T03:56:49;7.47;;;1.05;;
583;SDS011;27024;54.068;12.116;2023-05-29T03:59:16;9.20;;;1.35;;
583;SDS011;27024;54.068;12.116;2023-05-29T04:01:43;6.30;;;1.00;;
583;SDS011;27024;54.068;12.116;2023-05-29T04:04:10;8.93;;;1.50;;
583;SDS011;27024;54.068;12.116;2023-05-29T04:06:37;11.63;;;1.95;;
583;SDS011;27024;54.068;12.116;2023-05-29T04:09:07;8.73;;;1.60;;
583;SDS011;27024;54.068;12.116;2023-05-29T04:11:34;11.88;;;1.60;;
583;SDS011;27024;54.068;12.116;2023-05-29T04:14:01;5.75;;;0.82;;
583;SDS011;27024;54.068;12.116;2023-05-29T04:16:29;9.18;;;1.50;;
583;SDS011;27024;54.068;12.116;2023-05-29T04:18:56;10.13;;;1.20;;
583;SDS011;27024;54.068;12.116;2023-05-29T04:21:23;10.38;;;1.70;;
583;SDS011;27024;54.068;12.116;2023-05-29T04:23:50;10.60;;;1.20;;
583;SDS011;27024;54.068;12.116;2023-05-29T04:26:18;11.10;;;1.50;;
583;SDS011;27024;54.068;12.116;2023-05-29T04:28:54;7.78;;;1.30;;
583;SDS011;27024;54.068;12.116;2023-05-29T04:31:24;10.25;;;1.13;;
583;SDS011;27024;54.068;12.116;2023-05-29T04:33:52;11.25;;;1.35;;
583;SDS011;27024;54.068;12.116;2023-05-29T04:36:23;9.10;;;1.45;;
583;SDS011;27024;54.068;12.116;2023-05-29T04:38:52;12.05;;;1.77;;
583;SDS011;27024;54.068;12.116;2023-05-29T04:41:20;14.60;;;1.80;;
583;SDS011;27024;54.068;12.116;2023-05-29T04:43:50;10.90;;;1.40;;
583;SDS011;27024;54.068;12.116;2023-05-29T04:46:22;10.25;;;1.40;;
583;SDS011;27024;54.068;12.116;2023-05-29T04:48:51;8.15;;;1.33;;
583;SDS011;27024;54.068;12.116;2023-05-29T04:51:20;8.82;;;1.13;;
583;SDS011;27024;54.068;12.116;2023-05-29T04:53:48;9.65;;;1.65;;
583;SDS011;27024;54.068;12.116;2023-05-29T04:56:16;10.27;;;1.30;;
583;SDS011;27024;54.068;12.116;2023-05-29T04:58:43;10.70;;;1.42;;
583;SDS011;27024;54.068;12.116;2023-05-29T05:01:10;10.70;;;1.52;;
583;SDS011;27024;54.068;12.116;2023-05-29T05:03:41;16.52;;;1.80;;
583;SDS011;27024;54.068;12.116;2023-05-29T05:06:08;12.25;;;1.70;;
583;SDS011;27024;54.068;12.116;2023-05-29T05:08:36;14.73;;;1.85;;
583;SDS011;27024;54.068;12.116;2023-05-29T05:11:03;10.25;;;1.92;;
583;SDS011;27024;54.068;12.116;2023-05-29T05:13:30;16.63;;;1.83;;
583;SDS011;27024;54.068;12.116;2023-05-29T05:15:57;10.52;;;1.48;;
583;SDS011;27024;54.068;12.116;2023-05-29T05:18:24;9.88;;;1.67;;
583;SDS011;27024;54.068;12.116;2023-05-29T05:20:51;11.70;;;1.67;;
583;SDS011;27024;54.068;12.116;2023-05-29T05:23:18;10.52;;;1.52;;
583;SDS011;27024;54.068;12.116;2023-05-29T05:25:45;12.55;;;1.70;;
583;SDS011;27024;54.068;12.116;2023-05-29T05:28:12;12.85;;;1.58;;
583;SDS011;27024;54.068;12.116;2023-05-29T05:30:39;12.90;;;1.90;;
583;SDS011;27024;54.068;12.116;2023-05-29T05:33:07;10.07;;;1.50;;
583;SDS011;27024;54.068;12.116;2023-05-29T05:35:34;10.20;;;1.63;;
583;SDS011;27024;54.068;12.116;2023-05-29T05:38:01;14.90;;;1.60;;
583;SDS011;27024;54.068;12.116;2023-05-29T05:40:27;13.07;;;2.17;;
583;SDS011;27024;54.068;12.116;2023-05-29T05:42:54;13.23;;;2.10;;
583;SDS011;27024;54.068;12.116;2023-05-29T05:45:22;11.70;;;1.70;;
583;SDS011;27024;54.068;12.116;2023-05-29T05:47:49;18.70;;;2.50;;
583;SDS011;27024;54.068;12.116;2023-05-29T05:50:15;16.83;;;1.92;;
583;SDS011;27024;54.068;12.116;2023-05-29T05:52:42;13.38;;;1.95;;
583;SDS011;27024;54.068;12.116;2023-05-29T05:55:09;10.60;;;1.60;;
583;SDS011;27024;54.068;12.116;2023-05-29T05:57:36;15.75;;;2.08;;
583;SDS011;27024;54.068;12.116;2023-05-29T06:00:03;14.98;;;2.75;;
583;SDS011;27024;54.068;12.116;2023-05-29T06:02:34;14.52;;;1.73;;
583;SDS011;27024;54.068;12.116;2023-05-29T06:05:01;14.25;;;2.05;;
583;SDS011;27024;54.068;12.116;2023-05-29T06:07:28;11.68;;;1.75;;
583;SDS011;27024;54.068;12.116;2023-05-29T06:09:54;11.85;;;1.70;;
583;SDS011;27024;54.068;12.116;2023-05-29T06:12:21;14.20;;;1.73;;
583;SDS011;27024;54.068;12.116;2023-05-29T06:14:48;17.48;;;2.20;;
583;SDS011;27024;54.068;12.116;2023-05-29T06:17:16;17.10;;;2.28;;
583;SDS011;27024;54.068;12.116;2023-05-29T06:19:42;8.60;;;1.67;;
583;SDS011;27024;54.068;12.116;2023-05-29T06:22:10;13.43;;;1.70;;
583;SDS011;27024;54.068;12.116;2023-05-29T06:24:37;16.25;;;1.85;;
583;SDS011;27024;54.068;12.116;2023-05-29T06:27:04;13.10;;;1.65;;
583;SDS011;27024;54.068;12.116;2023-05-29T06:29:31;13.43;;;1.50;;
583;SDS011;27024;54.068;12.116;2023-05-29T06:31:59;13.38;;;2.03;;
583;SDS011;27024;54.068;12.116;2023-05-29T06:34:26;14.82;;;1.77;;
583;SDS011;27024;54.068;12.116;2023-05-29T06:36:53;11.80;;;1.70;;
583;SDS011;27024;54.068;12.116;2023-05-29T06:39:20;15.20;;;2.20;;
583;SDS011;27024;54.068;12.116;2023-05-29T06:41:47;9.95;;;1.70;;
583;SDS011;27024;54.068;12.116;2023-05-29T06:44:14;12.63;;;1.98;;
583;SDS011;27024;54.068;12.116;2023-05-29T06:46:40;10.27;;;1.60;;
583;SDS011;27024;54.068;12.116;2023-05-29T06:49:07;11.48;;;2.03;;
583;SDS011;27024;54.068;12.116;2023-05-29T06:51:34;11.00;;;1.52;;
583;SDS011;27024;54.068;12.116;2023-05-29T06:54:01;13.82;;;1.60;;
583;SDS011;27024;54.068;12.116;2023-05-29T06:56:28;10.63;;;1.98;;
583;SDS011;27024;54.068;12.116;2023-05-29T06:58:56;12.85;;;2.05;;
583;SDS011;27024;54.068;12.116;2023-05-29T07:01:23;8.60;;;1.50;;
583;SDS011;27024;54.068;12.116;2023-05-29T07:03:53;11.35;;;1.50;;
583;SDS011;27024;54.068;12.116;2023-05-29T07:06:21;15.38;;;1.88;;
583;SDS011;27024;54.068;12.116;2023-05-29T07:08:48;8.70;;;1.67;;
583;SDS011;27024;54.068;12.116;2023-05-29T07:11:15;10.88;;;2.30;;
583;SDS011;27024;54.068;12.116;2023-05-29T07:13:41;10.77;;;1.95;;
583;SDS011;27024;54.068;12.116;2023-05-29T07:16:08;13.85;;;2.03;;
583;SDS011;27024;54.068;12.116;2023-05-29T07:18:49;12.57;;;1.50;;
583;SDS011;27024;54.068;12.116;2023-05-29T07:21:16;12.55;;;1.30;;
583;SDS011;27024;54.068;12.116;2023-05-29T07:23:43;19.13;;;1.85;;
583;SDS011;27024;54.068;12.116;2023-05-29T07:26:10;12.35;;;1.70;;
583;SDS011;27024;54.068;12.116;2023-05-29T07:28:37;11.90;;;1.80;;
583;SDS011;27024;54.068;12.116;2023-05-29T07:31:04;12.63;;;1.92;;
583;SDS011;27024;54.068;12.116;2023-05-29T07:33:31;14.43;;;2.67;;
583;SDS011;27024;54.068;12.116;2023-05-29T07:35:58;10.45;;;1.65;;
583;SDS011;27024;54.068;12.116;2023-05-29T07:38:24;10.63;;;1.55;;
583;SDS011;27024;54.068;12.116;2023-05-29T07:40:51;14.13;;;1.80;;
583;SDS011;27024;54.068;12.116;2023-05-29T07:43:19;9.15;;;1.92;;
583;SDS011;27024;54.068;12.116;2023-05-29T07:45:45;12.43;;;1.80;;
583;SDS011;27024;54.068;12.116;2023-05-29T07:48:12;13.77;;;2.38;;
583;SDS011;27024;54.068;12.116;2023-05-29T07:50:39;9.88;;;1.75;;
583;SDS011;27024;54.068;12.116;2023-05-29T07:53:06;13.07;;;1.95;;
583;SDS011;27024;54.068;12.116;2023-05-29T07:55:34;11.30;;;1.90;;
583;SDS011;27024;54.068;12.116;2023-05-29T07:58:02;14.45;;;1.67;;
583;SDS011;27024;54.068;12.116;2023-05-29T08:00:29;13.55;;;1.77;;
583;SDS011;27024;54.068;12.116;2023-05-29T08:02:56;11.55;;;1.42;;
583;SDS011;27024;54.068;12.116;2023-05-29T08:05:24;10.45;;;1.58;;
583;SDS011;27024;54.068;12.116;2023-05-29T08:07:51;11.85;;;1.77;;
583;SDS011;27024;54.068;12.116;2023-05-29T08:10:18;12.75;;;1.52;;
583;SDS011;27024;54.068;12.116;2023-05-29T08:12:45;11.65;;;1.77;;
583;SDS011;27024;54.068;12.116;2023-05-29T08:15:12;11.18;;;1.27;;
583;SDS011;27024;54.068;12.116;2023-05-29T08:17:39;8.00;;;1.40;;
583;SDS011;27024;54.068;12.116;2023-05-29T08:20:06;14.88;;;1.50;;
583;SDS011;27024;54.068;12.116;2023-05-29T08:22:33;9.43;;;1.63;;
583;SDS011;27024;54.068;12.116;2023-05-29T08:25:00;15.45;;;1.55;;
583;SDS011;27024;54.068;12.116;2023-05-29T08:27:27;11.20;;;1.60;;
583;SDS011;27024;54.068;12.116;2023-05-29T08:29:54;10.20;;;1.77;;
583;SDS011;27024;54.068;12.116;2023-05-29T08:32:22;13.57;;;1.50;;
583;SDS011;27024;54.068;12.116;2023-05-29T08:34:49;19.08;;;1.80;;
583;SDS011;27024;54.068;12.116;2023-05-29T08:37:16;9.02;;;1.48;;
583;SDS011;27024;54.068;12.116;2023-05-29T08:39:43;14.13;;;1.63;;
583;SDS011;27024;54.068;12.116;2023-05-29T08:42:17;14.38;;;1.92;;
583;SDS011;27024;54.068;12.116;2023-05-29T08:44:48;9.38;;;1.85;;
583;SDS011;27024;54.068;12.116;2023-05-29T08:47:20;13.32;;;1.83;;
583;SDS011;27024;54.068;12.116;2023-05-29T08:49:51;11.75;;;1.90;;
583;SDS011;27024;54.068;12.116;2023-05-29T08:52:21;9.50;;;1.58;;
583;SDS011;27024;54.068;12.116;2023-05-29T08:54:52;14.38;;;1.92;;
583;SDS011;27024;54.068;12.116;2023-05-29T08:57:20;8.65;;;1.65;;
583;SDS011;27024;54.068;12.116;2023-05-29T08:59:50;10.23;;;1.90;;
583;SDS011;27024;54.068;12.116;2023-05-29T09:02:18;9.13;;;1.60;;
583;SDS011;27024;54.068;12.116;2023-05-29T09:04:46;9.35;;;1.42;;
583;SDS011;27024;54.068;12.116;2023-05-29T09:07:19;7.13;;;1.27;;
583;SDS011;27024;54.068;12.116;2023-05-29T09:09:46;8.57;;;1.58;;
583;SDS011;27024;54.068;12.116;2023-05-29T09:12:14;7.15;;;1.73;;
583;SDS011;27024;54.068;12.116;2023-05-29T09:14:44;9.05;;;1.70;;
583;SDS011;27024;54.068;12.116;2023-05-29T09:17:12;8.43;;;1.70;;
583;SDS011;27024;54.068;12.116;2023-05-29T09:19:39;10.63;;;1.75;;
583;SDS011;27024;54.068;12.116;2023-05-29T09:22:11;9.85;;;1.30;;
583;SDS011;27024;54.068;12.116;2023-05-29T09:24:45;10.52;;;1.45;;
583;SDS011;27024;54.068;12.116;2023-05-29T09:27:14;10.80;;;1.70;;
583;SDS011;27024;54.068;12.116;2023-05-29T09:29:41;7.70;;;1.42;;
583;SDS011;27024;54.068;12.116;2023-05-29T09:32:10;10.75;;;1.50;;
583;SDS011;27024;54.068;12.116;2023-05-29T09:34:38;8.30;;;1.55;;
583;SDS011;27024;54.068;12.116;2023-05-29T09:37:06;9.73;;;1.90;;
583;SDS011;27024;54.068;12.116;2023-05-29T09:42:09;6.97;;;1.73;;
583;SDS011;27024;54.068;12.116;2023-05-29T09:44:36;7.07;;;1.70;;
583;SDS011;27024;54.068;12.116;2023-05-29T09:47:03;9.13;;;1.67;;
583;SDS011;27024;54.068;12.116;2023-05-29T09:49:31;7.72;;;1.60;;
583;SDS011;27024;54.068;12.116;2023-05-29T09:51:59;12.65;;;1.70;;
583;SDS011;27024;54.068;12.116;2023-05-29T09:54:27;9.65;;;2.22;;
583;SDS011;27024;54.068;12.116;2023-05-29T09:56:57;8.88;;;1.92;;
583;SDS011;27024;54.068;12.116;2023-05-29T09:59:25;6.93;;;1.65;;
583;SDS011;27024;54.068;12.116;2023-05-29T10:02:03;5.63;;;1.10;;
583;SDS011;27024;54.068;12.116;2023-05-29T10:04:31;7.72;;;1.60;;
583;SDS011;27024;54.068;12.116;2023-05-29T10:07:04;9.52;;;1.80;;
583;SDS011;27024;54.068;12.116;2023-05-29T10:09:38;8.27;;;1.70;;
583;SDS011;27024;54.068;12.116;2023-05-29T10:12:11;7.57;;;1.52;;
583;SDS011;27024;54.068;12.116;2023-05-29T10:14:39;6.75;;;1.20;;
583;SDS011;27024;54.068;12.116;2023-05-29T10:17:09;8.25;;;1.85;;
583;SDS011;27024;54.068;12.116;2023-05-29T10:19:40;9.32;;;1.90;;
583;SDS011;27024;54.068;12.116;2023-05-29T10:22:08;9.23;;;1.67;;
583;SDS011;27024;54.068;12.116;2023-05-29T10:24:37;5.53;;;1.17;;
583;SDS011;27024;54.068;12.116;2023-05-29T10:27:04;9.35;;;1.55;;
583;SDS011;27024;54.068;12.116;2023-05-29T10:29:36;11.85;;;1.65;;
583;SDS011;27024;54.068;12.116;2023-05-29T10:32:21;9.45;;;1.92;;
583;SDS011;27024;54.068;12.116;2023-05-29T10:37:44;8.30;;;1.73;;
583;SDS011;27024;54.068;12.116;2023-05-29T10:40:24;8.60;;;1.85;;
583;SDS011;27024;54.068;12.116;2023-05-29T10:42:52;10.52;;;1.92;;
583;SDS011;27024;54.068;12.116;2023-05-29T10:50:41;6.65;;;1.40;;
583;SDS011;27024;54.068;12.116;2023-05-29T10:53:10;8.60;;;2.03;;
583;SDS011;27024;54.068;12.116;2023-05-29T10:55:41;11.48;;;1.70;;
583;SDS011;27024;54.068;12.116;2023-05-29T10:58:10;8.73;;;1.50;;
583;SDS011;27024;54.068;12.116;2023-05-29T11:00:40;9.98;;;1.60;;
583;SDS011;27024;54.068;12.116;2023-05-29T11:03:22;6.95;;;1.58;;
583;SDS011;27024;54.068;12.116;2023-05-29T11:05:57;10.18;;;1.73;;
583;SDS011;27024;54.068;12.116;2023-05-29T11:08:33;8.20;;;1.45;;
583;SDS011;27024;54.068;12.116;2023-05-29T11:11:02;9.35;;;1.95;;
583;SDS011;27024;54.068;12.116;2023-05-29T11:13:33;8.60;;;1.52;;
583;SDS011;27024;54.068;12.116;2023-05-29T11:16:19;10.18;;;2.15;;
583;SDS011;27024;54.068;12.116;2023-05-29T11:19:08;8.85;;;1.83;;
583;SDS011;27024;54.068;12.116;2023-05-29T11:26:53;12.32;;;1.67;;
583;SDS011;27024;54.068;12.116;2023-05-29T11:29:26;10.13;;;2.20;;
583;SDS011;27024;54.068;12.116;2023-05-29T11:31:56;8.85;;;1.60;;
583;SDS011;27024;54.068;12.116;2023-05-29T11:34:28;7.50;;;1.50;;
583;SDS011;27024;54.068;12.116;2023-05-29T11:36:57;8.88;;;1.60;;
583;SDS011;27024;54.068;12.116;2023-05-29T11:39:28;7.35;;;1.70;;
583;SDS011;27024;54.068;12.116;2023-05-29T11:41:55;8.40;;;1.80;;
583;SDS011;27024;54.068;12.116;2023-05-29T11:44:25;8.93;;;1.98;;
583;SDS011;27024;54.068;12.116;2023-05-29T11:47:02;7.88;;;1.77;;
583;SDS011;27024;54.068;12.116;2023-05-29T11:49:32;8.73;;;1.50;;
583;SDS011;27024;54.068;12.116;2023-05-29T11:52:10;9.45;;;2.00;;
583;SDS011;27024;54.068;12.116;2023-05-29T11:54:41;10.63;;;2.05;;
583;SDS011;27024;54.068;12.116;2023-05-29T11:57:20;7.90;;;1.67;;
583;SDS011;27024;54.068;12.116;2023-05-29T11:59:51;7.07;;;1.60;;
583;SDS011;27024;54.068;12.116;2023-05-29T12:02:19;9.18;;;1.75;;
583;SDS011;27024;54.068;12.116;2023-05-29T12:05:03;6.88;;;1.50;;
583;SDS011;27024;54.068;12.116;2023-05-29T12:07:31;7.65;;;1.70;;
583;SDS011;27024;54.068;12.116;2023-05-29T12:10:08;10.00;;;2.33;;
583;SDS011;27024;54.068;12.116;2023-05-29T12:12:39;7.50;;;1.80;;
583;SDS011;27024;54.068;12.116;2023-05-29T12:15:07;8.57;;;1.50;;
583;SDS011;27024;54.068;12.116;2023-05-29T12:17:35;8.05;;;1.80;;
583;SDS011;27024;54.068;12.116;2023-05-29T12:20:03;8.43;;;1.67;;
583;SDS011;27024;54.068;12.116;2023-05-29T12:22:36;7.82;;;1.67;;
583;SDS011;27024;54.068;12.116;2023-05-29T12:27:37;6.10;;;1.63;;
583;SDS011;27024;54.068;12.116;2023-05-29T12:30:09;6.35;;;1.60;;
583;SDS011;27024;54.068;12.116;2023-05-29T12:32:44;8.35;;;1.73;;
583;SDS011;27024;54.068;12.116;2023-05-29T12:35:17;8.52;;;2.00;;
583;SDS011;27024;54.068;12.116;2023-05-29T12:37:57;8.45;;;1.60;;
583;SDS011;27024;54.068;12.116;2023-05-29T12:40:29;7.13;;;1.35;;
583;SDS011;27024;54.068;12.116;2023-05-29T12:43:00;7.90;;;1.75;;
583;SDS011;27024;54.068;12.116;2023-05-29T12:45:30;8.13;;;1.60;;
583;SDS011;27024;54.068;12.116;2023-05-29T12:47:59;7.32;;;1.77;;
583;SDS011;27024;54.068;12.116;2023-05-29T12:50:31;9.40;;;1.52;;
583;SDS011;27024;54.068;12.116;2023-05-29T12:53:00;7.47;;;1.50;;
583;SDS011;27024;54.068;12.116;2023-05-29T12:55:33;7.45;;;1.42;;
583;SDS011;27024;54.068;12.116;2023-05-29T12:58:07;7.00;;;1.77;;
583;SDS011;27024;54.068;12.116;2023-05-29T13:00:36;6.43;;;1.83;;
583;SDS011;27024;54.068;12.116;2023-05-29T13:03:05;6.18;;;1.33;;
583;SDS011;27024;54.068;12.116;2023-05-29T13:05:33;7.72;;;1.10;;
583;SDS011;27024;54.068;12.116;2023-05-29T13:08:00;7.28;;;1.50;;
583;SDS011;27024;54.068;12.116;2023-05-29T13:10:27;6.25;;;1.25;;
583;SDS011;27024;54.068;12.116;2023-05-29T13:12:55;4.05;;;0.70;;
583;SDS011;27024;54.068;12.116;2023-05-29T13:15:25;7.30;;;1.17;;
583;SDS011;27024;54.068;12.116;2023-05-29T13:17:53;6.38;;;1.15;;
583;SDS011;27024;54.068;12.116;2023-05-29T13:20:20;6.07;;;1.45;;
583;SDS011;27024;54.068;12.116;2023-05-29T13:22:47;5.55;;;1.50;;
583;SDS011;27024;54.068;12.116;2023-05-29T13:25:17;6.70;;;1.73;;
583;SDS011;27024;54.068;12.116;2023-05-29T13:27:48;9.85;;;1.10;;
583;SDS011;27024;54.068;12.116;2023-05-29T13:30:15;8.13;;;1.27;;
583;SDS011;27024;54.068;12.116;2023-05-29T13:32:43;4.75;;;0.90;;
583;SDS011;27024;54.068;12.116;2023-05-29T13:35:10;4.35;;;0.80;;
583;SDS011;27024;54.068;12.116;2023-05-29T13:37:38;5.70;;;1.10;;
583;SDS011;27024;54.068;12.116;2023-05-29T13:40:05;6.10;;;1.35;;
583;SDS011;27024;54.068;12.116;2023-05-29T13:42:36;3.72;;;1.20;;
583;SDS011;27024;54.068;12.116;2023-05-29T13:45:05;6.20;;;1.48;;
583;SDS011;27024;54.068;12.116;2023-05-29T13:47:34;5.43;;;1.15;;
583;SDS011;27024;54.068;12.116;2023-05-29T13:50:02;4.40;;;1.13;;
583;SDS011;27024;54.068;12.116;2023-05-29T13:52:29;5.15;;;1.15;;
583;SDS011;27024;54.068;12.116;2023-05-29T13:54:56;6.72;;;1.10;;
583;SDS011;27024;54.068;12.116;2023-05-29T13:57:26;4.50;;;1.13;;
583;SDS011;27024;54.068;12.116;2023-05-29T13:59:54;5.82;;;1.70;;
583;SDS011;27024;54.068;12.116;2023-05-29T14:02:21;5.82;;;1.23;;
583;SDS011;27024;54.068;12.116;2023-05-29T14:04:49;4.15;;;1.02;;
583;SDS011;27024;54.068;12.116;2023-05-29T14:07:17;4.70;;;1.05;;
583;SDS011;27024;54.068;12.116;2023-05-29T14:09:43;6.18;;;1.30;;
583;SDS011;27024;54.068;12.116;2023-05-29T14:12:10;5.30;;;1.10;;
583;SDS011;27024;54.068;12.116;2023-05-29T14:14:37;4.50;;;1.10;;
583;SDS011;27024;54.068;12.116;2023-05-29T14:17:05;4.22;;;1.17;;
583;SDS011;27024;54.068;12.116;2023-05-29T14:19:32;5.80;;;1.38;;
583;SDS011;27024;54.068;12.116;2023-05-29T14:21:59;4.22;;;1.00;;
583;SDS011;27024;54.068;12.116;2023-05-29T14:24:27;3.85;;;0.88;;
583;SDS011;27024;54.068;12.116;2023-05-29T14:26:54;4.07;;;0.80;;
583;SDS011;27024;54.068;12.116;2023-05-29T14:29:21;6.20;;;1.40;;
583;SDS011;27024;54.068;12.116;2023-05-29T14:31:48;3.88;;;0.70;;
583;SDS011;27024;54.068;12.116;2023-05-29T14:34:16;4.63;;;1.08;;
583;SDS011;27024;54.068;12.116;2023-05-29T14:36:43;3.70;;;0.88;;
583;SDS011;27024;54.068;12.116;2023-05-29T14:39:11;3.30;;;1.10;;
583;SDS011;27024;54.068;12.116;2023-05-29T14:41:41;5.78;;;1.33;;
583;SDS011;27024;54.068;12.116;2023-05-29T14:44:08;3.33;;;0.80;;
583;SDS011;27024;54.068;12.116;2023-05-29T14:46:36;4.82;;;1.13;;
583;SDS011;27024;54.068;12.116;2023-05-29T14:49:03;6.47;;;1.52;;
583;SDS011;27024;54.068;12.116;2023-05-29T14:51:30;4.70;;;0.93;;
583;SDS011;27024;54.068;12.116;2023-05-29T14:53:57;6.30;;;1.35;;
583;SDS011;27024;54.068;12.116;2023-05-29T14:56:24;5.30;;;1.10;;
583;SDS011;27024;54.068;12.116;2023-05-29T14:58:51;6.57;;;1.20;;
583;SDS011;27024;54.068;12.116;2023-05-29T15:01:18;5.60;;;1.20;;
583;SDS011;27024;54.068;12.116;2023-05-29T15:03:45;5.93;;;1.25;;
583;SDS011;27024;54.068;12.116;2023-05-29T15:06:13;5.20;;;1.08;;
583;SDS011;27024;54.068;12.116;2023-05-29T15:08:40;3.83;;;1.05;;
583;SDS011;27024;54.068;12.116;2023-05-29T15:11:10;8.02;;;1.33;;
583;SDS011;27024;54.068;12.116;2023-05-29T15:13:39;7.70;;;1.25;;
583;SDS011;27024;54.068;12.116;2023-05-29T15:16:06;6.65;;;1.23;;
583;SDS011;27024;54.068;12.116;2023-05-29T15:18:35;4.43;;;0.98;;
583;SDS011;27024;54.068;12.116;2023-05-29T15:21:02;4.13;;;0.93;;
583;SDS011;27024;54.068;12.116;2023-05-29T15:23:30;4.93;;;0.93;;
583;SDS011;27024;54.068;12.116;2023-05-29T15:26:00;4.45;;;1.00;;